Time;durP1;ratioP1;P1;durP2;ratioP2;P2;SDS_P1;SDS_P2;PMS_P1;PMS_P2;Temp;Humidity;BMP_temperature;BMP_pressure;BME280_temperature;BME280_humidity;BME280_pressure;Samples;Min_cycle;Max_cycle;Signal;HPM_P1;HPM_P2
2022/07/09 00:00:57;;;;;;;1.88;1.15;;;23.10;59.30;;;;;;6100587;23;87342;-84
2022/07/09 00:03:23;;;;;;;1.25;1.15;;;23.10;59.30;;;;;;6102480;23;86759;-85
2022/07/09 00:05:48;;;;;;;1.30;1.20;;;23.10;59.30;;;;;;6075197;23;91619;-84
2022/07/09 00:08:15;;;;;;;1.65;1.17;;;23.10;59.30;;;;;;6100955;23;88418;-85
2022/07/09 00:10:43;;;;;;;2.50;1.20;;;23.10;59.20;;;;;;6074519;23;88523;-89
2022/07/09 00:13:09;;;;;;;1.65;1.50;;;23.10;59.30;;;;;;6075670;23;88868;-82
2022/07/09 00:15:35;;;;;;;1.63;1.20;;;23.00;59.10;;;;;;6075748;23;89736;-82
2022/07/09 00:18:01;;;;;;;1.90;1.20;;;23.10;59.30;;;;;;6100800;23;87274;-83
2022/07/09 00:20:27;;;;;;;1.63;1.20;;;23.10;59.20;;;;;;6101075;23;87729;-83
2022/07/09 00:22:52;;;;;;;1.65;1.23;;;23.10;59.20;;;;;;6101370;23;87303;-90
2022/07/09 00:25:18;;;;;;;1.42;1.20;;;23.10;59.20;;;;;;6099735;23;88429;-83
2022/07/09 00:27:44;;;;;;;1.63;1.17;;;23.10;59.10;;;;;;6074571;23;91356;-87
2022/07/09 00:30:10;;;;;;;2.42;1.48;;;23.10;59.20;;;;;;6074021;23;87533;-84
2022/07/09 00:32:35;;;;;;;1.50;1.40;;;23.10;59.20;;;;;;6072858;23;88933;-82
2022/07/09 00:35:01;;;;;;;2.25;1.40;;;23.10;59.90;;;;;;6100250;23;91503;-84
2022/07/09 00:37:26;;;;;;;1.20;1.10;;;23.10;59.20;;;;;;6075617;23;89656;-86
2022/07/09 00:39:52;;;;;;;1.75;1.30;;;23.10;59.20;;;;;;6075006;23;87444;-85
2022/07/09 00:42:18;;;;;;;1.27;1.10;;;23.10;59.20;;;;;;6100946;23;87837;-83
2022/07/09 00:44:53;;;;;;;1.52;1.30;;;23.10;59.30;;;;;;6073937;23;92004;-84
2022/07/09 00:47:18;;;;;;;1.48;1.05;;;23.10;59.20;;;;;;6074419;23;92642;-83
2022/07/09 00:49:44;;;;;;;1.15;1.02;;;23.10;59.20;;;;;;6074367;23;87596;-86
2022/07/09 00:52:13;;;;;;;1.85;1.02;;;23.10;59.10;;;;;;6100475;23;87236;-82
2022/07/09 00:54:40;;;;;;;2.13;1.20;;;23.10;59.20;;;;;;6100130;23;90241;-82
2022/07/09 00:57:08;;;;;;;1.38;1.02;;;23.00;59.20;;;;;;6073763;23;88808;-84
2022/07/09 00:59:37;;;;;;;1.33;1.20;;;23.10;59.20;;;;;;6073586;23;87773;-85
2022/07/09 01:02:04;;;;;;;2.05;1.23;;;23.10;59.30;;;;;;6074626;23;88577;-83
2022/07/09 01:04:30;;;;;;;2.22;1.20;;;23.00;59.10;;;;;;6100825;23;88384;-87
2022/07/09 01:06:57;;;;;;;1.27;1.17;;;23.10;59.20;;;;;;6100784;23;87014;-82
2022/07/09 01:09:24;;;;;;;1.35;1.08;;;23.10;59.30;;;;;;6100638;23;86955;-87
2022/07/09 01:11:50;;;;;;;1.33;1.10;;;23.00;59.10;;;;;;6074329;23;88796;-85
2022/07/09 01:14:16;;;;;;;1.27;1.10;;;23.10;59.30;;;;;;6099928;23;88624;-82
2022/07/09 01:16:41;;;;;;;1.75;1.27;;;23.10;59.40;;;;;;6100695;23;88286;-83
2022/07/09 01:19:13;;;;;;;1.88;1.42;;;23.00;59.30;;;;;;6100971;23;88175;-89
2022/07/09 01:21:39;;;;;;;1.30;0.95;;;23.00;59.30;;;;;;6072647;23;89372;-85
2022/07/09 01:24:06;;;;;;;1.48;1.23;;;23.10;59.20;;;;;;6070500;23;91479;-84
2022/07/09 01:26:32;;;;;;;1.20;0.95;;;23.00;59.30;;;;;;6071742;23;91392;-85
2022/07/09 01:28:57;;;;;;;1.40;1.30;;;23.00;59.20;;;;;;6072907;23;87155;-84
2022/07/09 01:31:23;;;;;;;1.40;1.08;;;23.00;59.20;;;;;;6073379;23;91417;-83
2022/07/09 01:33:49;;;;;;;1.42;1.30;;;23.00;59.30;;;;;;6074437;23;91973;-83
2022/07/09 01:36:14;;;;;;;1.42;1.20;;;23.00;59.10;;;;;;6099825;23;87398;-84
2022/07/09 01:38:40;;;;;;;1.40;1.30;;;23.00;59.20;;;;;;6072642;23;87284;-84
2022/07/09 01:41:06;;;;;;;1.38;1.10;;;23.00;59.10;;;;;;6073371;23;89215;-85
2022/07/09 01:43:33;;;;;;;2.05;1.27;;;23.00;59.10;;;;;;6070055;23;91803;-86
2022/07/09 01:46:00;;;;;;;1.15;1.05;;;23.00;59.10;;;;;;6071691;23;91230;-83
2022/07/09 01:48:26;;;;;;;1.20;1.10;;;23.00;59.20;;;;;;6097071;23;88307;-83
2022/07/09 01:50:53;;;;;;;1.88;1.30;;;23.00;59.20;;;;;;6071080;23;90330;-83
2022/07/09 01:53:19;;;;;;;1.48;1.10;;;23.00;59.00;;;;;;6097992;23;88074;-87
2022/07/09 01:55:45;;;;;;;1.88;1.08;;;23.00;59.20;;;;;;6097900;23;88304;-86
2022/07/09 01:58:10;;;;;;;1.40;1.30;;;23.00;59.20;;;;;;6100967;23;87543;-83
2022/07/09 02:00:36;;;;;;;2.15;1.30;;;23.00;59.30;;;;;;6074123;23;88959;-85
2022/07/09 02:03:09;;;;;;;1.33;1.10;;;23.00;59.20;;;;;;6100023;23;88746;-83
2022/07/09 02:05:39;;;;;;;2.03;1.38;;;23.00;59.20;;;;;;6073641;23;89352;-88
2022/07/09 02:08:05;;;;;;;1.92;1.23;;;23.00;59.20;;;;;;6102881;23;86913;-82
2022/07/09 02:10:31;;;;;;;1.45;1.02;;;23.00;59.20;;;;;;6075555;23;89986;-82
2022/07/09 02:12:56;;;;;;;1.15;1.05;;;23.00;59.30;;;;;;6073256;23;90737;-84
2022/07/09 02:15:22;;;;;;;2.13;1.60;;;23.00;59.10;;;;;;6100652;23;89076;-84
2022/07/09 02:17:47;;;;;;;0.80;0.80;;;23.00;59.20;;;;;;6075376;23;87144;-84
2022/07/09 02:20:13;;;;;;;2.65;1.20;;;23.00;59.30;;;;;;6101149;23;89055;-82
2022/07/09 02:22:39;;;;;;;1.20;1.10;;;23.00;59.30;;;;;;6100630;23;91093;-83
2022/07/09 02:25:05;;;;;;;1.13;1.02;;;23.00;59.20;;;;;;6074745;23;89381;-83
2022/07/09 02:27:31;;;;;;;1.50;1.23;;;23.00;59.20;;;;;;6101622;23;88358;-86
2022/07/09 02:29:56;;;;;;;1.30;1.20;;;23.00;59.20;;;;;;6101233;23;86781;-84
2022/07/09 02:32:22;;;;;;;1.75;1.10;;;23.00;59.30;;;;;;6102511;23;88212;-82
2022/07/09 02:34:48;;;;;;;1.20;1.10;;;23.00;59.20;;;;;;6074448;23;90136;-83
2022/07/09 02:37:13;;;;;;;2.20;1.17;;;23.00;59.20;;;;;;6075379;23;87840;-84
2022/07/09 02:39:39;;;;;;;1.10;0.90;;;23.00;59.00;;;;;;6075535;23;86980;-84
2022/07/09 02:42:05;;;;;;;1.15;0.98;;;23.00;59.10;;;;;;6071295;23;89643;-82
2022/07/09 02:44:31;;;;;;;1.40;1.13;;;23.00;59.10;;;;;;6098924;23;89326;-84
2022/07/09 02:47:06;;;;;;;;;;;;;;;;;;;;;
2022/07/09 02:49:39;;;;;;;2.67;1.40;;;23.00;59.20;;;;;;6101717;23;87371;-85
2022/07/09 02:52:06;;;;;;;1.60;1.17;;;23.00;59.30;;;;;;6100314;23;89339;-82
2022/07/09 02:54:32;;;;;;;1.33;1.20;;;23.00;59.30;;;;;;6075539;23;89385;-82
2022/07/09 02:56:57;;;;;;;1.38;1.00;;;23.00;59.30;;;;;;6075882;23;87229;-82
2022/07/09 02:59:23;;;;;;;1.38;1.27;;;23.00;59.40;;;;;;6101067;23;87372;-83
2022/07/09 03:01:49;;;;;;;1.58;1.30;;;23.00;59.20;;;;;;6075260;23;89731;-85
2022/07/09 03:04:15;;;;;;;1.88;1.23;;;23.00;59.30;;;;;;6101101;23;88196;-82
2022/07/09 03:06:40;;;;;;;2.05;1.30;;;23.00;59.20;;;;;;6073983;23;87436;-89
2022/07/09 03:09:08;;;;;;;1.23;1.13;;;22.90;59.20;;;;;;6100096;23;87349;-82
2022/07/09 03:11:34;;;;;;;1.42;1.10;;;22.90;59.20;;;;;;6077648;23;90179;-83
2022/07/09 03:14:00;;;;;;;1.30;1.20;;;22.90;59.30;;;;;;6101656;23;87311;-88
2022/07/09 03:16:25;;;;;;;1.58;1.15;;;23.00;59.40;;;;;;6074607;23;87574;-83
2022/07/09 03:18:51;;;;;;;1.10;1.00;;;22.90;59.30;;;;;;6074067;23;89420;-86
2022/07/09 03:21:17;;;;;;;1.30;1.20;;;23.00;59.30;;;;;;6100830;23;87852;-82
2022/07/09 03:23:43;;;;;;;1.77;1.10;;;23.00;59.30;;;;;;6072934;23;90064;-86
2022/07/09 03:26:08;;;;;;;1.50;1.05;;;22.90;59.30;;;;;;6072482;23;87853;-83
2022/07/09 03:28:34;;;;;;;1.48;1.05;;;23.00;59.20;;;;;;6101186;23;87349;-84
2022/07/09 03:31:00;;;;;;;1.10;1.00;;;22.90;59.20;;;;;;6098783;23;88197;-87
2022/07/09 03:33:29;;;;;;;1.40;0.95;;;22.90;59.10;;;;;;6100084;23;88244;-83
2022/07/09 03:35:55;;;;;;;1.10;1.00;;;22.90;59.10;;;;;;6073757;23;86900;-83
2022/07/09 03:38:22;;;;;;;1.42;1.27;;;23.00;59.20;;;;;;6100657;23;87691;-83
2022/07/09 03:40:47;;;;;;;1.35;1.20;;;22.90;59.30;;;;;;6100946;23;88242;-86
2022/07/09 03:43:13;;;;;;;1.52;1.13;;;22.90;59.20;;;;;;6075074;23;89289;-83
2022/07/09 03:45:39;;;;;;;1.10;1.00;;;22.90;59.20;;;;;;6100999;23;86876;-85
2022/07/09 03:48:05;;;;;;;1.38;1.20;;;22.90;59.20;;;;;;6074726;23;88144;-83
2022/07/09 03:50:31;;;;;;;1.20;1.10;;;22.90;59.20;;;;;;6074033;23;89543;-83
2022/07/09 03:52:57;;;;;;;1.20;1.02;;;22.90;59.10;;;;;;6073703;23;89124;-87
2022/07/09 03:55:23;;;;;;;1.25;1.13;;;22.90;59.20;;;;;;6098842;23;87509;-88
2022/07/09 03:57:49;;;;;;;1.38;1.25;;;22.90;59.20;;;;;;6073922;23;87524;-86
2022/07/09 04:00:15;;;;;;;1.33;1.15;;;23.00;59.30;;;;;;6099089;23;88989;-83
2022/07/09 04:02:41;;;;;;;1.55;1.30;;;22.90;59.20;;;;;;6097938;23;87547;-83
2022/07/09 04:05:08;;;;;;;1.30;1.20;;;23.00;59.40;;;;;;6073857;23;86799;-88
2022/07/09 04:07:34;;;;;;;1.13;1.00;;;22.90;59.20;;;;;;6073152;23;86545;-87
2022/07/09 04:10:00;;;;;;;1.20;1.10;;;22.90;59.10;;;;;;6100020;23;87534;-84
2022/07/09 04:12:28;;;;;;;1.30;1.20;;;22.90;59.20;;;;;;6073324;23;89236;-84
2022/07/09 04:14:53;;;;;;;1.30;1.20;;;22.90;59.30;;;;;;6073324;23;87949;-84
2022/07/09 04:17:25;;;;;;;1.23;1.10;;;22.90;59.20;;;;;;6073792;23;87723;-85
2022/07/09 04:19:52;;;;;;;1.20;1.10;;;22.90;59.20;;;;;;6101912;23;87681;-82
2022/07/09 04:22:18;;;;;;;1.50;1.20;;;22.90;59.20;;;;;;6100919;23;89187;-82
2022/07/09 04:24:44;;;;;;;1.20;1.10;;;22.90;59.20;;;;;;6101074;23;87350;-87
2022/07/09 04:27:09;;;;;;;1.33;1.10;;;22.90;59.30;;;;;;6073885;23;89376;-86
2022/07/09 04:29:35;;;;;;;1.35;1.20;;;22.90;59.30;;;;;;6101397;23;90923;-89
2022/07/09 04:32:00;;;;;;;1.20;1.10;;;22.90;59.30;;;;;;6075543;23;89599;-83
2022/07/09 04:34:26;;;;;;;1.23;1.10;;;22.90;59.40;;;;;;6075304;23;87587;-86
2022/07/09 04:36:52;;;;;;;1.55;1.10;;;22.90;59.10;;;;;;6074544;23;89478;-82
2022/07/09 04:39:22;;;;;;;1.08;0.90;;;22.90;59.20;;;;;;6101410;23;88545;-83
2022/07/09 04:41:48;;;;;;;0.80;0.80;;;22.90;59.20;;;;;;6101318;23;87302;-86
2022/07/09 04:44:15;;;;;;;1.20;1.10;;;22.90;59.30;;;;;;6074670;23;87435;-89
2022/07/09 04:46:42;;;;;;;1.30;1.20;;;22.90;59.30;;;;;;6075346;23;87039;-84
2022/07/09 04:49:08;;;;;;;1.25;1.10;;;22.90;59.30;;;;;;6074095;23;89836;-83
2022/07/09 04:51:34;;;;;;;1.33;1.08;;;23.00;59.30;;;;;;6075391;23;89292;-86
2022/07/09 04:53:59;;;;;;;1.25;1.13;;;23.00;59.40;;;;;;6100745;23;86861;-82
2022/07/09 04:56:25;;;;;;;1.23;1.00;;;23.00;59.40;;;;;;6100956;23;87423;-83
2022/07/09 04:58:54;;;;;;;1.58;1.20;;;23.00;59.30;;;;;;6073536;23;91102;-84
2022/07/09 05:01:31;;;;;;;0.80;0.80;;;23.00;59.30;;;;;;6075066;23;88779;-82
2022/07/09 05:03:57;;;;;;;1.13;1.02;;;23.00;59.30;;;;;;6073810;23;88334;-87
2022/07/09 05:06:23;;;;;;;1.10;1.00;;;23.00;59.30;;;;;;6073858;23;88670;-87
2022/07/09 05:08:48;;;;;;;1.10;1.00;;;23.00;59.50;;;;;;6102310;23;87983;-86
2022/07/09 05:11:14;;;;;;;0.90;0.90;;;22.90;59.40;;;;;;6099987;23;89935;-83
2022/07/09 05:13:40;;;;;;;1.38;1.00;;;22.90;59.30;;;;;;6074897;23;87138;-86
2022/07/09 05:16:07;;;;;;;1.23;1.00;;;22.90;59.30;;;;;;6100700;23;86866;-84
2022/07/09 05:18:32;;;;;;;1.13;1.02;;;22.90;59.30;;;;;;6073473;23;89968;-87
2022/07/09 05:21:00;;;;;;;1.63;1.25;;;23.00;59.30;;;;;;6100676;23;87132;-85
2022/07/09 05:23:26;;;;;;;0.80;0.80;;;23.00;59.40;;;;;;6099959;23;87629;-86
2022/07/09 05:25:53;;;;;;;1.80;1.35;;;23.00;59.50;;;;;;6099450;23;87132;-90
2022/07/09 05:28:19;;;;;;;1.23;1.13;;;23.00;59.40;;;;;;6099592;23;88346;-83
2022/07/09 05:30:44;;;;;;;1.50;1.30;;;23.00;59.20;;;;;;6101242;23;90633;-87
2022/07/09 05:33:10;;;;;;;1.38;1.10;;;22.90;59.30;;;;;;6100276;23;87335;-91
2022/07/09 05:35:37;;;;;;;1.10;1.00;;;22.90;59.20;;;;;;6073041;23;90489;-83
2022/07/09 05:38:04;;;;;;;1.30;0.98;;;23.00;59.40;;;;;;6072452;23;89712;-88
2022/07/09 05:40:32;;;;;;;1.42;1.17;;;23.00;59.40;;;;;;6073889;23;88361;-88
2022/07/09 05:42:58;;;;;;;1.30;1.13;;;22.90;59.30;;;;;;6073523;23;87103;-91
2022/07/09 05:45:25;;;;;;;1.27;1.17;;;23.00;59.40;;;;;;6101982;23;89285;-84
2022/07/09 05:47:54;;;;;;;1.23;1.13;;;23.00;59.30;;;;;;6074471;23;91787;-87
2022/07/09 05:50:19;;;;;;;1.95;1.15;;;23.00;59.30;;;;;;6075506;23;89421;-90
2022/07/09 05:52:46;;;;;;;1.02;0.95;;;23.00;59.30;;;;;;6101805;23;88430;-85
2022/07/09 05:55:12;;;;;;;1.58;1.10;;;23.00;59.20;;;;;;6076888;23;87737;-83
2022/07/09 05:57:37;;;;;;;1.30;1.20;;;23.00;59.30;;;;;;6102530;23;88428;-92
2022/07/09 06:00:04;;;;;;;1.13;1.05;;;23.00;59.20;;;;;;6102903;23;87605;-82
2022/07/09 06:02:30;;;;;;;1.00;0.90;;;23.00;59.30;;;;;;6075017;23;87277;-84
2022/07/09 06:04:56;;;;;;;1.58;0.98;;;23.00;59.30;;;;;;6075956;23;89243;-91
2022/07/09 06:07:22;;;;;;;1.73;1.40;;;23.10;59.30;;;;;;6073995;23;89848;-87
2022/07/09 06:09:47;;;;;;;1.65;1.20;;;23.00;58.50;;;;;;6073904;23;90489;-88
2022/07/09 06:12:13;;;;;;;1.02;1.00;;;23.00;58.50;;;;;;6098910;23;87419;-84
2022/07/09 06:14:39;;;;;;;7.20;1.90;;;23.00;58.40;;;;;;6074689;23;90449;-83
2022/07/09 06:17:05;;;;;;;3.38;2.00;;;23.00;58.70;;;;;;6099981;23;88365;-89
2022/07/09 06:19:35;;;;;;;6.30;2.05;;;23.00;59.70;;;;;;6073743;23;90648;-85
2022/07/09 06:22:03;;;;;;;;;;;23.00;59.00;;;;;;6081389;23;87554;-86
2022/07/09 06:24:30;;;;;;;6.77;2.40;;;23.00;59.70;;;;;;6076240;23;89073;-86
2022/07/09 06:26:56;;;;;;;6.20;3.15;;;23.00;59.40;;;;;;6074391;23;89957;-88
2022/07/09 06:29:21;;;;;;;10.77;3.83;;;23.00;60.10;;;;;;6074126;23;90320;-87
2022/07/09 06:31:47;;;;;;;8.10;3.33;;;23.00;60.60;;;;;;6075176;23;86828;-88
2022/07/09 06:34:13;;;;;;;10.45;3.13;;;23.00;60.20;;;;;;6074603;23;89202;-84
2022/07/09 06:36:41;;;;;;;13.10;3.83;;;23.00;60.20;;;;;;6076675;23;89512;-87
2022/07/09 06:41:51;;;;;;;13.10;3.03;;;23.00;60.50;;;;;;6099047;23;88318;-87
2022/07/09 06:44:17;;;;;;;12.23;3.80;;;23.00;60.80;;;;;;6073420;23;88640;-88
2022/07/09 06:46:42;;;;;;;8.05;4.03;;;23.00;61.10;;;;;;6074901;23;88800;-87
2022/07/09 06:49:17;;;;;;;9.77;4.78;;;23.00;61.30;;;;;;6073850;23;89747;-87
2022/07/09 06:51:43;;;;;;;9.95;4.78;;;23.00;61.40;;;;;;6074927;23;86812;-89
2022/07/09 06:54:09;;;;;;;10.00;4.63;;;23.00;61.50;;;;;;6075366;23;89006;-88
2022/07/09 06:56:35;;;;;;;8.63;4.78;;;23.00;61.70;;;;;;6075798;23;91177;-89
2022/07/09 06:59:00;;;;;;;11.43;5.70;;;23.00;62.10;;;;;;6075166;23;89744;-88
2022/07/09 07:01:26;;;;;;;11.13;5.22;;;23.00;62.30;;;;;;6074437;23;86925;-88
2022/07/09 07:03:52;;;;;;;8.80;5.18;;;23.00;62.50;;;;;;6074925;23;90115;-89
2022/07/09 07:06:18;;;;;;;7.32;5.40;;;23.00;62.60;;;;;;6074081;23;89789;-88
2022/07/09 07:08:44;;;;;;;11.25;5.53;;;23.00;63.50;;;;;;6075653;23;92906;-88
2022/07/09 07:11:12;;;;;;;8.90;5.30;;;23.00;62.90;;;;;;6076440;23;87227;-88
2022/07/09 07:13:38;;;;;;;12.23;5.65;;;23.00;62.60;;;;;;6075264;23;89045;-87
2022/07/09 07:16:04;;;;;;;11.48;5.95;;;23.00;62.50;;;;;;6073370;23;91669;-88
2022/07/09 07:18:30;;;;;;;11.80;5.45;;;23.00;62.80;;;;;;6073280;23;90347;-87
2022/07/09 07:20:57;;;;;;;15.98;6.00;;;23.00;63.10;;;;;;6071931;23;87794;-89
2022/07/09 07:23:23;;;;;;;13.30;6.45;;;23.00;62.30;;;;;;6099876;23;87626;-85
2022/07/09 07:25:49;;;;;;;12.55;5.38;;;23.00;62.50;;;;;;6074623;23;91314;-87
2022/07/09 07:28:14;;;;;;;11.45;5.57;;;23.00;62.60;;;;;;6073994;23;88403;-85
2022/07/09 07:30:58;;;;;;;13.38;6.15;;;22.90;62.60;;;;;;6074223;23;88620;-86
2022/07/09 07:33:24;;;;;;;10.77;5.63;;;23.00;62.70;;;;;;6074377;23;87616;-90
2022/07/09 07:35:49;;;;;;;11.43;4.70;;;23.00;62.50;;;;;;5979020;23;88653;-86
2022/07/09 07:38:15;;;;;;;44.67;11.15;;;23.00;62.40;;;;;;6055148;23;91472;-90
2022/07/09 07:40:42;;;;;;;89.03;20.05;;;23.00;62.70;;;;;;6073508;23;87581;-87
2022/07/09 07:43:14;;;;;;;63.85;14.40;;;23.00;63.00;;;;;;6074643;23;87494;-87
2022/07/09 07:45:39;;;;;;;46.03;12.60;;;23.00;63.00;;;;;;6075025;23;91467;-87
2022/07/09 07:48:05;;;;;;;44.03;10.50;;;23.00;63.20;;;;;;6074465;23;89102;-91
2022/07/09 07:50:32;;;;;;;37.33;10.40;;;22.90;63.30;;;;;;6100027;23;87206;-87
2022/07/09 07:52:58;;;;;;;52.60;11.45;;;23.00;63.10;;;;;;6075344;23;90134;-89
2022/07/09 07:55:27;;;;;;;36.58;9.68;;;23.00;63.10;;;;;;6074787;23;92734;-86
2022/07/09 07:57:53;;;;;;;28.02;8.98;;;23.00;63.40;;;;;;6076816;23;90987;-88
2022/07/09 08:00:37;;;;;;;39.15;9.05;;;23.00;63.40;;;;;;6076420;23;87142;-90
2022/07/09 08:03:03;;;;;;;27.75;9.00;;;23.00;63.20;;;;;;6076265;23;89300;-92
2022/07/09 08:05:31;;;;;;;30.58;9.02;;;23.00;63.00;;;;;;6075097;23;89714;-86
2022/07/09 08:08:00;;;;;;;32.25;8.82;;;23.00;62.90;;;;;;6075657;23;91081;-89
2022/07/09 08:10:26;;;;;;;25.42;7.38;;;23.00;63.30;;;;;;6076463;23;87852;-87
2022/07/09 08:12:53;;;;;;;28.00;7.30;;;23.00;63.50;;;;;;6078194;23;89456;-87
2022/07/09 08:15:23;;;;;;;34.15;8.25;;;23.00;63.30;;;;;;6075392;23;88301;-91
2022/07/09 08:17:49;;;;;;;21.42;6.95;;;23.00;63.10;;;;;;6076422;23;89480;-89
2022/07/09 08:20:20;;;;;;;16.08;6.25;;;23.00;63.20;;;;;;6074436;23;88299;-89
2022/07/09 08:22:48;;;;;;;11.90;5.78;;;23.00;63.30;;;;;;6077948;23;88295;-87
2022/07/09 08:25:24;;;;;;;20.90;6.43;;;23.00;63.30;;;;;;6081061;23;89627;-89
2022/07/09 08:27:50;;;;;;;20.15;5.55;;;23.00;63.30;;;;;;6078908;23;91454;-95
2022/07/09 08:30:15;;;;;;;18.63;6.10;;;23.00;63.20;;;;;;6080630;23;87011;-88
2022/07/09 08:32:43;;;;;;;37.08;9.20;;;23.00;63.30;;;;;;6078276;23;89133;-90
2022/07/09 08:35:12;;;;;;;24.75;5.93;;;23.00;63.20;;;;;;6080994;23;90208;-88
2022/07/09 08:38:04;;;;;;;58.88;13.10;;;23.00;63.60;;;;;;6078920;23;88898;-90
2022/07/09 08:40:33;;;;;;;48.67;12.05;;;23.00;63.90;;;;;;6073011;23;87040;-93
2022/07/09 08:43:10;;;;;;;65.25;16.00;;;23.00;63.70;;;;;;6079863;23;89341;-91
2022/07/09 08:45:36;;;;;;;79.93;17.98;;;23.00;63.60;;;;;;6075360;23;90840;-87
2022/07/09 08:48:07;;;;;;;66.88;17.95;;;23.00;63.60;;;;;;6073501;23;90136;-88
2022/07/09 08:50:34;;;;;;;85.47;20.75;;;23.00;63.90;;;;;;6072734;23;87273;-90
2022/07/09 08:53:03;;;;;;;82.05;19.10;;;23.00;63.70;;;;;;6072472;23;89664;-87
2022/07/09 08:55:30;;;;;;;70.57;17.35;;;23.00;63.80;;;;;;6072310;23;91745;-91
2022/07/09 08:57:56;;;;;;;60.17;16.20;;;23.00;63.70;;;;;;6073711;23;88704;-85
2022/07/09 09:00:27;;;;;;;63.35;15.65;;;23.00;63.50;;;;;;6074197;23;86813;-89
2022/07/09 09:02:53;;;;;;;54.58;15.63;;;23.00;63.40;;;;;;6074647;23;88731;-88
2022/07/09 09:05:19;;;;;;;45.10;12.73;;;23.00;63.30;;;;;;6074266;23;91287;-88
2022/07/09 09:08:16;;;;;;;42.45;11.65;;;23.00;63.50;;;;;;6099922;23;88806;-89
2022/07/09 09:10:45;;;;;;;42.33;11.02;;;23.00;63.30;;;;;;6099925;23;88002;-88
2022/07/09 09:13:13;;;;;;;;;;;23.10;63.30;;;;;;6069847;23;88848;-90
2022/07/09 09:15:39;;;;;;;26.88;9.13;;;23.00;63.40;;;;;;6074761;23;91297;-88
2022/07/09 09:18:05;;;;;;;30.30;9.02;;;23.10;63.30;;;;;;6100186;23;88806;-86
2022/07/09 09:20:31;;;;;;;31.10;8.77;;;23.10;63.10;;;;;;6073439;23;86871;-89
2022/07/09 09:23:04;;;;;;;27.70;8.75;;;23.10;63.80;;;;;;6073483;23;89928;-90
2022/07/09 09:25:30;;;;;;;21.08;7.35;;;23.00;63.40;;;;;;6073775;23;89895;-89
2022/07/09 09:27:57;;;;;;;24.70;7.38;;;23.00;63.30;;;;;;6101014;23;86685;-89
2022/07/09 09:30:38;;;;;;;26.08;7.35;;;23.10;63.40;;;;;;6073631;23;86897;-87
2022/07/09 09:33:04;;;;;;;21.67;7.53;;;23.00;63.50;;;;;;6074776;23;90039;-87
2022/07/09 09:35:33;;;;;;;20.33;6.78;;;23.00;63.60;;;;;;6074964;23;90851;-91
2022/07/09 09:38:00;;;;;;;18.15;6.88;;;23.00;63.40;;;;;;6073901;23;91259;-87
2022/07/09 09:40:45;;;;;;;15.70;6.15;;;23.00;63.50;;;;;;6102401;23;87239;-94
2022/07/09 09:43:14;;;;;;;19.70;6.68;;;23.10;63.60;;;;;;6074942;23;90601;-88
2022/07/09 09:45:43;;;;;;;18.63;6.53;;;23.10;63.90;;;;;;6076407;23;91504;-91
2022/07/09 09:48:10;;;;;;;16.25;6.13;;;23.10;64.00;;;;;;6078088;23;87480;-88
2022/07/09 09:50:52;;;;;;;18.40;6.28;;;23.10;64.00;;;;;;6101541;23;87262;-92
2022/07/09 09:53:21;;;;;;;17.67;5.97;;;23.10;63.90;;;;;;6081853;23;89541;-91
2022/07/09 09:56:06;;;;;;;15.82;6.35;;;23.10;64.60;;;;;;6076417;23;88496;-91
2022/07/09 09:58:47;;;;;;;16.52;5.78;;;23.10;64.40;;;;;;6062455;23;89535;-94
2022/07/09 10:01:41;;;;;;;16.25;5.72;;;23.10;64.40;;;;;;6076208;23;87904;-90
2022/07/09 10:04:15;;;;;;;16.48;6.72;;;23.10;65.40;;;;;;6078443;23;88616;-91
2022/07/09 10:06:58;;;;;;;21.02;6.10;;;23.10;65.30;;;;;;6108373;23;87511;-91
2022/07/09 10:09:24;;;;;;;11.70;5.93;;;23.10;65.20;;;;;;6081720;23;89593;-88
2022/07/09 10:11:54;;;;;;;13.85;5.43;;;23.10;65.60;;;;;;6078396;23;87078;-88
2022/07/09 10:14:37;;;;;;;16.58;5.07;;;23.10;65.40;;;;;;6075814;23;88337;-89
2022/07/09 10:17:14;;;;;;;12.00;4.72;;;23.10;66.10;;;;;;6072495;23;89991;-89
2022/07/09 10:20:04;;;;;;;10.07;4.80;;;23.10;66.20;;;;;;6070719;23;90042;-90
2022/07/09 10:23:00;;;;;;;10.27;4.85;;;23.10;65.70;;;;;;6075121;23;87553;-88
2022/07/09 10:25:30;;;;;;;10.43;4.40;;;23.10;65.60;;;;;;6073870;23;89024;-90
2022/07/09 10:28:05;;;;;;;11.73;4.43;;;23.10;65.70;;;;;;6077678;23;89875;-90
2022/07/09 10:30:51;;;;;;;14.88;4.95;;;23.10;66.10;;;;;;6075384;23;90877;-93
2022/07/09 10:34:06;;;;;;;10.88;5.05;;;23.20;65.80;;;;;;6102644;23;87021;-87
2022/07/09 10:36:32;;;;;;;12.10;4.75;;;23.10;65.40;;;;;;6078990;23;88537;-90
2022/07/09 10:39:58;;;;;;;14.10;5.47;;;23.20;65.20;;;;;;6077618;23;91055;-90
2022/07/09 10:42:24;;;;;;;12.90;5.03;;;23.20;65.20;;;;;;6075904;23;90749;-85
2022/07/09 10:44:53;;;;;;;14.13;4.95;;;23.10;65.00;;;;;;6075496;23;87948;-82
2022/07/09 10:47:19;;;;;;;14.52;5.30;;;23.20;65.40;;;;;;6075787;23;86504;-85
2022/07/09 10:49:45;;;;;;;12.98;5.05;;;23.10;65.20;;;;;;6072668;23;88042;-88
2022/07/09 10:52:10;;;;;;;11.52;5.32;;;23.20;65.20;;;;;;6073544;23;91079;-90
2022/07/09 10:55:07;;;;;;;12.02;4.40;;;23.20;65.30;;;;;;6073594;23;88475;-85
2022/07/09 10:57:35;;;;;;;12.90;4.22;;;23.10;65.50;;;;;;6074139;23;88394;-89
2022/07/09 11:00:01;;;;;;;8.70;4.07;;;23.20;65.70;;;;;;6072225;23;91242;-87
2022/07/09 11:02:26;;;;;;;12.32;4.93;;;23.20;65.90;;;;;;6073433;23;88397;-89
2022/07/09 11:04:53;;;;;;;12.98;4.22;;;23.10;66.10;;;;;;6074907;23;87354;-88
2022/07/09 11:07:23;;;;;;;10.00;4.13;;;23.20;66.10;;;;;;6075219;23;88953;-86
2022/07/09 11:09:49;;;;;;;10.60;4.25;;;23.20;65.90;;;;;;6076826;23;91777;-90
2022/07/09 11:12:17;;;;;;;8.77;4.43;;;23.10;66.00;;;;;;6074850;23;90817;-84
2022/07/09 11:14:47;;;;;;;9.57;3.60;;;23.10;66.00;;;;;;6073368;23;87182;-87
2022/07/09 11:17:37;;;;;;;10.20;3.67;;;23.10;66.10;;;;;;6074753;23;88530;-86
2022/07/09 11:20:03;;;;;;;9.73;4.20;;;23.20;66.00;;;;;;6070729;23;89167;-84
2022/07/09 11:22:29;;;;;;;8.30;3.80;;;23.20;65.90;;;;;;6070166;23;89705;-88
2022/07/09 11:24:55;;;;;;;10.98;4.22;;;23.20;65.80;;;;;;6098666;23;87446;-85
2022/07/09 11:27:20;;;;;;;9.25;3.67;;;23.20;65.70;;;;;;6073114;23;90689;-88
2022/07/09 11:29:48;;;;;;;9.70;3.88;;;23.20;65.90;;;;;;6074348;23;90008;-85
2022/07/09 11:32:17;;;;;;;9.07;3.90;;;23.20;65.70;;;;;;6072954;23;87357;-87
2022/07/09 11:34:51;;;;;;;9.35;4.97;;;23.20;65.80;;;;;;6073040;23;87262;-85
2022/07/09 11:37:23;;;;;;;10.52;3.70;;;23.10;65.40;;;;;;6074386;23;88652;-86
2022/07/09 11:40:06;;;;;;;10.20;4.25;;;23.20;65.60;;;;;;6073505;23;89599;-91
2022/07/09 11:42:44;;;;;;;10.52;4.10;;;23.20;65.70;;;;;;6101152;23;88588;-91
2022/07/09 11:45:10;;;;;;;7.20;3.55;;;23.20;65.50;;;;;;6074119;23;88465;-88
2022/07/09 11:47:38;;;;;;;7.03;3.80;;;23.20;65.60;;;;;;6073716;23;88807;-86
2022/07/09 11:50:14;;;;;;;7.53;3.83;;;23.20;65.50;;;;;;6075314;23;90028;-86
2022/07/09 11:52:58;;;;;;;;;;;;;;;;;;;;;
2022/07/09 11:55:35;;;;;;;7.80;4.10;;;23.20;65.40;;;;;;6101839;23;87242;-90
2022/07/09 11:58:08;;;;;;;8.90;4.03;;;23.20;65.20;;;;;;6075898;23;88054;-86
2022/07/09 12:00:39;;;;;;;6.32;3.85;;;23.20;65.30;;;;;;6074721;23;90393;-85
2022/07/09 12:03:05;;;;;;;10.32;4.13;;;23.20;65.10;;;;;;6073739;23;88824;-85
2022/07/09 12:05:33;;;;;;;8.52;4.05;;;23.20;65.10;;;;;;6075155;23;87169;-87
2022/07/09 12:08:05;;;;;;;9.45;4.10;;;23.20;64.90;;;;;;6075232;23;87590;-85
2022/07/09 12:10:45;;;;;;;7.53;4.45;;;23.20;64.70;;;;;;6073702;23;89993;-84
2022/07/09 12:15:41;;;;;;;12.98;5.00;;;23.20;64.80;;;;;;6063559;23;87586;-86
2022/07/09 12:18:07;;;;;;;9.63;4.75;;;23.20;64.90;;;;;;6065377;23;87548;-86
2022/07/09 12:20:33;;;;;;;7.20;4.85;;;23.20;64.90;;;;;;6076520;23;88080;-85
2022/07/09 12:22:58;;;;;;;17.77;5.53;;;23.20;64.70;;;;;;6067198;23;89516;-86
2022/07/09 12:25:24;;;;;;;14.25;5.03;;;23.30;64.40;;;;;;6092799;23;87386;-85
2022/07/09 12:27:50;;;;;;;15.38;5.72;;;23.30;64.70;;;;;;6090091;23;89300;-85
2022/07/09 12:30:17;;;;;;;11.98;5.25;;;23.40;64.80;;;;;;6091099;23;90033;-85
2022/07/09 12:32:43;;;;;;;7.60;4.75;;;23.30;64.50;;;;;;6093865;23;87491;-86
2022/07/09 12:35:10;;;;;;;10.40;4.75;;;23.30;64.50;;;;;;6067057;23;88233;-86
2022/07/09 12:37:37;;;;;;;14.93;5.40;;;23.30;64.50;;;;;;6095264;23;87286;-85
2022/07/09 12:40:04;;;;;;;7.40;5.05;;;23.30;64.50;;;;;;6067475;23;89401;-85
2022/07/09 12:42:31;;;;;;;10.25;4.88;;;23.20;64.80;;;;;;6067691;23;90473;-85
2022/07/09 12:45:06;;;;;;;14.40;4.75;;;23.30;64.50;;;;;;6099023;23;87369;-85
2022/07/09 12:47:32;;;;;;;12.82;5.25;;;23.20;64.20;;;;;;6068941;23;89433;-86
2022/07/09 12:49:58;;;;;;;12.45;4.75;;;23.20;64.40;;;;;;6096527;23;87688;-86
2022/07/09 12:52:24;;;;;;;13.63;5.40;;;23.20;64.30;;;;;;6098937;23;86668;-85
2022/07/09 12:54:49;;;;;;;8.93;4.47;;;23.30;64.20;;;;;;6069613;23;87126;-86
2022/07/09 12:57:15;;;;;;;10.70;4.20;;;23.20;64.30;;;;;;6095571;23;87609;-85